Svartfoss — V2PR3 — position and weather

sailwx.info

Track history (hours):
 
Tides and Currents Weather Stations Pressure Air Temp Water Temp Dewpoint Dewpoint Depression Visibility Wind Speed Wind Dir Waves Ship Positions

Svartfoss

Last reported at 2016-Jun-25 05:33 UTC. Time now 2016-Jun-28 15:16 UTC.
Position N 69°01' E 033°03'.

Length 80 m; draft 5.7 m.

Type: Cargo ship. MMSI: 304882000.

Date/timePositionNaut miles runAvg speedWind from/ knotsBaromVisibWave heightAir tempDewpointWater temp
2016-Jun-25 05:33N 69°01' E 033°03'3 2.7
2016-Jun-25 04:33N 68°58' E 033°03'0 0.0
2016-Jun-25 03:33N 68°58' E 033°03'0 0.0
2016-Jun-25 02:33N 68°58' E 033°03'0 0.0
2016-Jun-25 01:33N 68°58' E 033°03'0 0.0
2016-Jun-25 00:33N 68°58' E 033°03'0 0.0
2016-Jun-24 23:33N 68°58' E 033°03'0 0.0
2016-Jun-24 22:34N 68°58' E 033°03'0 0.0
2016-Jun-24 21:34N 68°58' E 033°03'0 0.0
2016-Jun-24 20:34N 68°58' E 033°03'0 0.0
2016-Jun-24 19:34N 68°58' E 033°03'0 0.0
2016-Jun-24 18:34N 68°58' E 033°03'0 0.0
2016-Jun-24 17:34N 68°58' E 033°03'0 0.0
2016-Jun-24 16:33N 68°58' E 033°03'0 0.0
2016-Jun-24 15:34N 68°58' E 033°03'0 0.0
2016-Jun-24 14:34N 68°58' E 033°03'0 0.0
2016-Jun-24 13:34N 68°58' E 033°03'1 1.3
2016-Jun-24 12:34N 68°57' E 033°02'0 0.0
2016-Jun-24 11:34N 68°57' E 033°02'0 0.0
2016-Jun-24 10:34N 68°57' E 033°02'0 0.0
2016-Jun-24 09:34N 68°57' E 033°02'0 0.0
2016-Jun-24 08:34N 68°57' E 033°02'0 0.0
2016-Jun-24 07:34N 68°57' E 033°02'0 0.1
2016-Jun-24 04:33N 68°56' E 033°02'0 0.0
2016-Jun-24 03:33N 68°56' E 033°02'0 0.0
2016-Jun-24 02:24N 68°56' E 033°02'0 0.0
2016-Jun-24 01:33N 68°56' E 033°02'0 0.0
2016-Jun-24 00:33N 68°56' E 033°02'0 0.0
2016-Jun-23 23:32N 68°56' E 033°02'0 0.0
2016-Jun-23 22:32N 68°56' E 033°02'0 0.0
2016-Jun-23 21:32N 68°56' E 033°02'0 0.0
2016-Jun-23 20:29N 68°56' E 033°02'0 0.0
2016-Jun-23 19:32N 68°56' E 033°02'0 0.0
2016-Jun-23 18:32N 68°56' E 033°02'0 0.0
2016-Jun-23 17:32N 68°56' E 033°02'0 0.0
2016-Jun-23 16:32N 68°56' E 033°02'0 0.0
2016-Jun-23 15:32N 68°56' E 033°02'0 0.0
2016-Jun-23 14:32N 68°56' E 033°02'0 0.0
2016-Jun-23 13:32N 68°56' E 033°02'0 0.0
2016-Jun-23 12:32N 68°56' E 033°02'0 0.0
2016-Jun-23 11:29N 68°56' E 033°02'0 0.0
2016-Jun-23 10:29N 68°56' E 033°02'4 4.2
2016-Jun-23 09:33N 69°00' E 033°03'322 6.4
2016-Jun-21 07:34N 69°15' E 017°58'1212.2
2016-Jun-21 06:33N 69°07' E 017°34'100 7.1
2016-Jun-20 16:33N 68°06' E 013°57'83 6.8
2016-Jun-20 04:24N 66°45' E 013°14'4 1.2
2016-Jun-20 01:05N 66°43' E 013°06'814.9
2016-Jun-20 00:33N 66°40' E 012°48'1414.2
2016-Jun-19 23:34N 66°32' E 012°18'6 5.8
2016-Jun-19 22:34N 66°30' E 012°05'1010.1
2016-Jun-19 21:33N 66°20' E 012°09'6410.7
2016-Jun-19 15:33N 65°15' E 011°56'1514.9
2016-Jun-19 14:33N 65°02' E 011°42'1514.6
2016-Jun-19 13:34N 64°52' E 011°17'1 1.0
2016-Jun-19 12:33N 64°52' E 011°14'0 0.0
2016-Jun-19 11:33N 64°52' E 011°14'82 8.2
2016-Jun-19 01:34N 63°43' E 009°31'1413.7
2016-Jun-19 00:33N 63°32' E 009°13'4614.2
2016-Jun-18 21:20N 63°09' E 007°44'82 6.0
2016-Jun-18 07:33N 62°17' E 005°25'1312.6
2016-Jun-18 06:33N 62°10' E 005°04'1313.3
2016-Jun-18 05:33N 61°56' E 005°08'0 0.2
2016-Jun-18 04:33N 61°56' E 005°07'0 0.2
2016-Jun-18 03:34N 61°56' E 005°08'3 2.7
2016-Jun-18 02:34N 61°59' E 005°08'0 0.0
2016-Jun-18 01:34N 61°59' E 005°08'3 2.5
2016-Jun-18 00:34N 61°56' E 005°08'80 9.5
2016-Jun-17 16:09N 60°37' E 004°53'1015.1
2016-Jun-17 15:29N 60°28' E 005°01'9 1.6
2016-Jun-17 09:33N 60°24' E 005°18'37 9.3
2016-Jun-17 05:33N 59°47' E 005°33'1515.4
2016-Jun-17 04:33N 59°35' E 005°15'1713.4
2016-Jun-17 03:17N 59°18' E 005°20'1014.1
2016-Jun-17 02:33N 59°08' E 005°25'1312.9
2016-Jun-17 01:33N 59°02' E 005°47'1010.4
2016-Jun-17 00:33N 58°51' E 005°45'0 0.0
2016-Jun-16 23:33N 58°51' E 005°45'9 9.5
2016-Jun-16 22:34N 59°01' E 005°48'9 9.1
2016-Jun-16 21:33N 58°56' E 005°33'1514.6
2016-Jun-16 20:34N 58°43' E 005°19'1615.4
2016-Jun-16 19:33N 58°30' E 005°05'13614.9
2016-Jun-16 10:25N 56°29' E 003°05'1514.5
2016-Jun-16 09:25N 56°16' E 002°54'1314.5
2016-Jun-16 08:33N 56°05' E 002°43'1414.6
2016-Jun-16 07:33N 55°53' E 002°29'15214.7
2016-Jun-15 21:12N 53°39' E 000°23'914.4
2016-Jun-15 20:33N 53°33' E 000°12'1414.0
2016-Jun-15 19:33N 53°38' W 000°09'1 1.5
2016-Jun-15 18:33N 53°38' W 000°12'0 0.0
2016-Jun-15 17:33N 53°38' W 000°12'0 0.0
2016-Jun-15 16:33N 53°38' W 000°12'0 0.0
2016-Jun-15 15:33N 53°38' W 000°12'0 0.1
2016-Jun-15 14:33N 53°38' W 000°12'1 0.5
2016-Jun-15 13:33N 53°38' W 000°11'5 5.2
2016-Jun-15 12:33N 53°35' W 000°04'1 0.5
2016-Jun-15 11:32N 53°35' W 000°04'0 0.0
2016-Jun-15 10:32N 53°35' W 000°04'0 0.0
2016-Jun-15 09:32N 53°35' W 000°04'0 0.0
2016-Jun-15 08:32N 53°35' W 000°04'0 0.0
2016-Jun-15 07:31N 53°35' W 000°04'0 0.0
2016-Jun-15 06:31N 53°35' W 000°04'  
Track history (hours):
 
Tides and Currents Weather Stations Pressure Air Temp Water Temp Dewpoint Dewpoint Depression Visibility Wind Speed Wind Dir Waves Ship Positions

Svartfoss

Last reported at 2016-Jun-25 05:33 UTC. Time now 2016-Jun-28 15:16 UTC.
Position N 69°01' E 033°03'.

Length 80 m; draft 5.7 m.

Type: Cargo ship. MMSI: 304882000.

Date/timePositionNaut miles runAvg speedWind from/ knotsBaromVisibWave heightAir tempDewpointWater temp
2016-Jun-25 05:33N 69°01' E 033°03'3 2.7
2016-Jun-25 04:33N 68°58' E 033°03'0 0.0
2016-Jun-25 03:33N 68°58' E 033°03'0 0.0
2016-Jun-25 02:33N 68°58' E 033°03'0 0.0
2016-Jun-25 01:33N 68°58' E 033°03'0 0.0
2016-Jun-25 00:33N 68°58' E 033°03'0 0.0
2016-Jun-24 23:33N 68°58' E 033°03'0 0.0
2016-Jun-24 22:34N 68°58' E 033°03'0 0.0
2016-Jun-24 21:34N 68°58' E 033°03'0 0.0
2016-Jun-24 20:34N 68°58' E 033°03'0 0.0
2016-Jun-24 19:34N 68°58' E 033°03'0 0.0
2016-Jun-24 18:34N 68°58' E 033°03'0 0.0
2016-Jun-24 17:34N 68°58' E 033°03'0 0.0
2016-Jun-24 16:33N 68°58' E 033°03'0 0.0
2016-Jun-24 15:34N 68°58' E 033°03'0 0.0
2016-Jun-24 14:34N 68°58' E 033°03'0 0.0
2016-Jun-24 13:34N 68°58' E 033°03'1 1.3
2016-Jun-24 12:34N 68°57' E 033°02'0 0.0
2016-Jun-24 11:34N 68°57' E 033°02'0 0.0
2016-Jun-24 10:34N 68°57' E 033°02'0 0.0
2016-Jun-24 09:34N 68°57' E 033°02'0 0.0
2016-Jun-24 08:34N 68°57' E 033°02'0 0.0
2016-Jun-24 07:34N 68°57' E 033°02'0 0.1
2016-Jun-24 04:33N 68°56' E 033°02'0 0.0
2016-Jun-24 03:33N 68°56' E 033°02'0 0.0
2016-Jun-24 02:24N 68°56' E 033°02'0 0.0
2016-Jun-24 01:33N 68°56' E 033°02'0 0.0
2016-Jun-24 00:33N 68°56' E 033°02'0 0.0
2016-Jun-23 23:32N 68°56' E 033°02'0 0.0
2016-Jun-23 22:32N 68°56' E 033°02'0 0.0
2016-Jun-23 21:32N 68°56' E 033°02'0 0.0
2016-Jun-23 20:29N 68°56' E 033°02'0 0.0
2016-Jun-23 19:32N 68°56' E 033°02'0 0.0
2016-Jun-23 18:32N 68°56' E 033°02'0 0.0
2016-Jun-23 17:32N 68°56' E 033°02'0 0.0
2016-Jun-23 16:32N 68°56' E 033°02'0 0.0
2016-Jun-23 15:32N 68°56' E 033°02'0 0.0
2016-Jun-23 14:32N 68°56' E 033°02'0 0.0
2016-Jun-23 13:32N 68°56' E 033°02'0 0.0
2016-Jun-23 12:32N 68°56' E 033°02'0 0.0
2016-Jun-23 11:29N 68°56' E 033°02'0 0.0
2016-Jun-23 10:29N 68°56' E 033°02'4 4.2
2016-Jun-23 09:33N 69°00' E 033°03'322 6.4
2016-Jun-21 07:34N 69°15' E 017°58'1212.2
2016-Jun-21 06:33N 69°07' E 017°34'100 7.1
2016-Jun-20 16:33N 68°06' E 013°57'83 6.8
2016-Jun-20 04:24N 66°45' E 013°14'4 1.2
2016-Jun-20 01:05N 66°43' E 013°06'814.9
2016-Jun-20 00:33N 66°40' E 012°48'1414.2
2016-Jun-19 23:34N 66°32' E 012°18'6 5.8
2016-Jun-19 22:34N 66°30' E 012°05'1010.1
2016-Jun-19 21:33N 66°20' E 012°09'6410.7
2016-Jun-19 15:33N 65°15' E 011°56'1514.9
2016-Jun-19 14:33N 65°02' E 011°42'1514.6
2016-Jun-19 13:34N 64°52' E 011°17'1 1.0
2016-Jun-19 12:33N 64°52' E 011°14'0 0.0
2016-Jun-19 11:33N 64°52' E 011°14'82 8.2
2016-Jun-19 01:34N 63°43' E 009°31'1413.7
2016-Jun-19 00:33N 63°32' E 009°13'4614.2
2016-Jun-18 21:20N 63°09' E 007°44'82 6.0
2016-Jun-18 07:33N 62°17' E 005°25'1312.6
2016-Jun-18 06:33N 62°10' E 005°04'1313.3
2016-Jun-18 05:33N 61°56' E 005°08'0 0.2
2016-Jun-18 04:33N 61°56' E 005°07'0 0.2
2016-Jun-18 03:34N 61°56' E 005°08'3 2.7
2016-Jun-18 02:34N 61°59' E 005°08'0 0.0
2016-Jun-18 01:34N 61°59' E 005°08'3 2.5
2016-Jun-18 00:34N 61°56' E 005°08'80 9.5
2016-Jun-17 16:09N 60°37' E 004°53'1015.1
2016-Jun-17 15:29N 60°28' E 005°01'9 1.6
2016-Jun-17 09:33N 60°24' E 005°18'37 9.3
2016-Jun-17 05:33N 59°47' E 005°33'1515.4
2016-Jun-17 04:33N 59°35' E 005°15'1713.4
2016-Jun-17 03:17N 59°18' E 005°20'1014.1
2016-Jun-17 02:33N 59°08' E 005°25'1312.9
2016-Jun-17 01:33N 59°02' E 005°47'1010.4
2016-Jun-17 00:33N 58°51' E 005°45'0 0.0
2016-Jun-16 23:33N 58°51' E 005°45'9 9.5
2016-Jun-16 22:34N 59°01' E 005°48'9 9.1
2016-Jun-16 21:33N 58°56' E 005°33'1514.6
2016-Jun-16 20:34N 58°43' E 005°19'1615.4
2016-Jun-16 19:33N 58°30' E 005°05'13614.9
2016-Jun-16 10:25N 56°29' E 003°05'1514.5
2016-Jun-16 09:25N 56°16' E 002°54'1314.5
2016-Jun-16 08:33N 56°05' E 002°43'1414.6
2016-Jun-16 07:33N 55°53' E 002°29'15214.7
2016-Jun-15 21:12N 53°39' E 000°23'914.4
2016-Jun-15 20:33N 53°33' E 000°12'1414.0
2016-Jun-15 19:33N 53°38' W 000°09'1 1.5
2016-Jun-15 18:33N 53°38' W 000°12'0 0.0
2016-Jun-15 17:33N 53°38' W 000°12'0 0.0
2016-Jun-15 16:33N 53°38' W 000°12'0 0.0
2016-Jun-15 15:33N 53°38' W 000°12'0 0.1
2016-Jun-15 14:33N 53°38' W 000°12'1 0.5
2016-Jun-15 13:33N 53°38' W 000°11'5 5.2
2016-Jun-15 12:33N 53°35' W 000°04'1 0.5
2016-Jun-15 11:32N 53°35' W 000°04'0 0.0
2016-Jun-15 10:32N 53°35' W 000°04'0 0.0
2016-Jun-15 09:32N 53°35' W 000°04'0 0.0
2016-Jun-15 08:32N 53°35' W 000°04'0 0.0
2016-Jun-15 07:31N 53°35' W 000°04'0 0.0
2016-Jun-15 06:31N 53°35' W 000°04'  

Dump ship's entire track history